createdAt,value
2022-12-18T00:01:50.270Z,96974
2022-12-18T00:02:50.278Z,96978
2022-12-18T00:03:50.322Z,96978
2022-12-18T00:04:50.199Z,96978
2022-12-18T00:05:51.864Z,96978
2022-12-18T00:06:50.236Z,96980
2022-12-18T00:07:50.266Z,96977
2022-12-18T00:09:50.346Z,96979
2022-12-18T00:10:50.174Z,96987
2022-12-18T00:12:50.187Z,96988
2022-12-18T00:13:50.201Z,96990
2022-12-18T00:14:50.256Z,96991
2022-12-18T00:15:50.321Z,96992
2022-12-18T00:16:50.254Z,96992
2022-12-18T00:17:50.191Z,96992
2022-12-18T00:19:50.281Z,96993
2022-12-18T00:20:50.243Z,96995
2022-12-18T00:21:50.220Z,96998
2022-12-18T00:22:50.194Z,96998
2022-12-18T00:23:50.241Z,96997
2022-12-18T00:24:50.277Z,97001
2022-12-18T00:25:50.213Z,97001
2022-12-18T00:26:50.223Z,96999
2022-12-18T00:27:50.252Z,96999
2022-12-18T00:30:50.265Z,97006
2022-12-18T00:31:50.342Z,97003
2022-12-18T00:32:50.299Z,97007
2022-12-18T00:33:54.076Z,97006
2022-12-18T00:35:50.246Z,97002
2022-12-18T00:36:50.283Z,97001
2022-12-18T00:37:50.275Z,96998
2022-12-18T00:38:50.250Z,97000
2022-12-18T00:39:50.276Z,96995
2022-12-18T00:41:50.260Z,96992
2022-12-18T00:42:52.113Z,96987
2022-12-18T00:44:50.255Z,96997
2022-12-18T00:45:50.416Z,96997
2022-12-18T00:46:50.294Z,96994
2022-12-18T00:47:50.312Z,96996
2022-12-18T00:48:50.285Z,96996
2022-12-18T00:49:50.304Z,96991
2022-12-18T00:50:50.301Z,96990
2022-12-18T00:51:50.300Z,96990
2022-12-18T00:52:50.338Z,96992
2022-12-18T00:53:50.318Z,96996
2022-12-18T00:54:50.314Z,96997
2022-12-18T00:55:50.307Z,97002
2022-12-18T00:56:50.327Z,97004
2022-12-18T00:57:50.326Z,97006
2022-12-18T00:58:50.287Z,97006
2022-12-18T00:59:50.324Z,97004
2022-12-18T01:00:50.476Z,97008
2022-12-18T01:01:50.464Z,97008
2022-12-18T01:02:50.520Z,97009
2022-12-18T01:03:50.294Z,97011
2022-12-18T01:04:50.298Z,97011
2022-12-18T01:05:50.384Z,97008
2022-12-18T01:06:50.296Z,97008
2022-12-18T01:07:50.306Z,97008
2022-12-18T01:08:50.342Z,97009
2022-12-18T01:09:50.356Z,97012
2022-12-18T01:10:50.405Z,97011
2022-12-18T01:12:50.331Z,97018
2022-12-18T01:13:50.407Z,97014
2022-12-18T01:15:50.325Z,97015
2022-12-18T01:16:50.402Z,97015
2022-12-18T01:17:50.369Z,97014
2022-12-18T01:18:50.388Z,97016
2022-12-18T01:19:52.404Z,97016
2022-12-18T01:20:50.377Z,97018
2022-12-18T01:21:50.391Z,97019
2022-12-18T01:25:50.439Z,97025
2022-12-18T01:26:50.384Z,97028
2022-12-18T01:28:50.427Z,97027
2022-12-18T01:32:50.417Z,97032
2022-12-18T01:33:50.406Z,97034
2022-12-18T01:34:50.441Z,97039
2022-12-18T01:35:50.406Z,97040
2022-12-18T01:39:50.418Z,97035
2022-12-18T01:40:50.464Z,97038
2022-12-18T01:41:50.455Z,97042
2022-12-18T01:43:50.445Z,97041
2022-12-18T01:46:50.462Z,97041
2022-12-18T01:47:50.382Z,97041
2022-12-18T01:48:50.467Z,97039
2022-12-18T01:50:50.467Z,97046
2022-12-18T01:53:50.413Z,97051
2022-12-18T01:54:50.488Z,97048
2022-12-18T01:55:50.461Z,97048
2022-12-18T01:56:52.630Z,97049
2022-12-18T01:58:50.434Z,97050
2022-12-18T01:59:50.475Z,97055
2022-12-18T02:02:50.578Z,97053
2022-12-18T02:04:50.511Z,97054
2022-12-18T02:06:50.484Z,97057
2022-12-18T02:09:50.543Z,97058
2022-12-18T02:11:50.474Z,97056
2022-12-18T02:12:50.476Z,97058
2022-12-18T02:14:50.500Z,97059
2022-12-18T02:16:50.564Z,97055
2022-12-18T02:19:50.551Z,97051
2022-12-18T02:21:50.544Z,97045
2022-12-18T02:22:50.557Z,97045
2022-12-18T02:23:50.488Z,97045
2022-12-18T02:24:50.494Z,97047
2022-12-18T02:25:50.508Z,97046
2022-12-18T02:26:50.492Z,97046
2022-12-18T02:27:50.502Z,97050
2022-12-18T02:28:50.528Z,97050
2022-12-18T02:29:55.980Z,97050
2022-12-18T02:30:50.654Z,97052
2022-12-18T02:32:50.569Z,97053
2022-12-18T02:33:52.870Z,97052
2022-12-18T02:34:50.552Z,97051
2022-12-18T02:35:50.532Z,97051
2022-12-18T02:36:50.547Z,97056
2022-12-18T02:37:50.560Z,97060
2022-12-18T02:38:50.535Z,97062
2022-12-18T02:40:50.598Z,97058
2022-12-18T02:41:50.534Z,97059
2022-12-18T02:42:50.565Z,97056
2022-12-18T02:43:50.574Z,97056
2022-12-18T02:45:50.708Z,97045
2022-12-18T02:46:50.600Z,97044
2022-12-18T02:47:50.594Z,97040
2022-12-18T02:49:50.564Z,97042
2022-12-18T02:50:50.600Z,97045
2022-12-18T02:51:50.585Z,97050
2022-12-18T02:52:50.625Z,97054
2022-12-18T02:53:50.613Z,97051
2022-12-18T02:54:51.444Z,97053
2022-12-18T02:57:50.570Z,97061
2022-12-18T02:58:50.627Z,97063
2022-12-18T03:00:50.705Z,97062
2022-12-18T03:01:50.729Z,97056
2022-12-18T03:02:50.724Z,97054
2022-12-18T03:03:50.607Z,97053
2022-12-18T03:04:50.610Z,97053
2022-12-18T03:05:50.618Z,97061
2022-12-18T03:07:50.625Z,97058
2022-12-18T03:08:50.680Z,97056
2022-12-18T03:09:50.630Z,97056
2022-12-18T03:10:53.075Z,97059
2022-12-18T03:11:50.608Z,97061
2022-12-18T03:13:50.668Z,97055
2022-12-18T03:14:50.616Z,97055
2022-12-18T03:15:50.601Z,97060
2022-12-18T03:16:50.635Z,97068
2022-12-18T03:17:50.606Z,97068
2022-12-18T03:18:50.689Z,97072
2022-12-18T03:19:50.660Z,97072
2022-12-18T03:20:50.627Z,97070
2022-12-18T03:25:50.650Z,97086
2022-12-18T03:27:50.674Z,97084
2022-12-18T03:28:50.691Z,97080
2022-12-18T03:29:50.647Z,97078
2022-12-18T03:31:50.680Z,97071
2022-12-18T03:34:50.649Z,97073
2022-12-18T03:37:50.715Z,97089
2022-12-18T03:38:50.730Z,97091
2022-12-18T03:39:50.673Z,97091
2022-12-18T03:40:50.717Z,97088
2022-12-18T03:43:50.760Z,97082
2022-12-18T03:45:50.712Z,97086
2022-12-18T03:46:50.747Z,97090
2022-12-18T03:48:50.719Z,97089
2022-12-18T03:49:50.699Z,97095
2022-12-18T03:52:50.734Z,97092
2022-12-18T03:53:50.780Z,97091
2022-12-18T03:54:50.733Z,97099
2022-12-18T03:55:50.756Z,97103
2022-12-18T03:56:50.782Z,97104
2022-12-18T03:57:50.757Z,97104
2022-12-18T03:58:50.796Z,97100
2022-12-18T03:59:50.711Z,97100
2022-12-18T04:01:50.913Z,97101
2022-12-18T04:02:50.764Z,97104
2022-12-18T04:03:50.823Z,97105
2022-12-18T04:05:50.749Z,97109
2022-12-18T04:06:50.757Z,97111
2022-12-18T04:07:50.727Z,97111
2022-12-18T04:08:50.746Z,97111
2022-12-18T04:09:50.772Z,97109
2022-12-18T04:11:50.823Z,97106
2022-12-18T04:12:50.748Z,97106
2022-12-18T04:13:50.733Z,97106
2022-12-18T04:14:50.796Z,97103
2022-12-18T04:15:50.866Z,97103
2022-12-18T04:17:50.760Z,97102
2022-12-18T04:18:50.760Z,97107
2022-12-18T04:19:50.793Z,97109
2022-12-18T04:20:50.792Z,97109
2022-12-18T04:21:50.783Z,97109
2022-12-18T04:22:50.800Z,97109
2022-12-18T04:23:50.811Z,97111
2022-12-18T04:24:53.581Z,97114
2022-12-18T04:26:50.822Z,97113
2022-12-18T04:27:50.786Z,97114
2022-12-18T04:28:50.824Z,97114
2022-12-18T04:29:50.857Z,97118
2022-12-18T04:30:50.911Z,97122
2022-12-18T04:31:50.874Z,97123
2022-12-18T04:32:52.367Z,97124
2022-12-18T04:33:50.814Z,97124
2022-12-18T04:34:50.866Z,97133
2022-12-18T04:35:50.806Z,97130
2022-12-18T04:36:50.827Z,97133
2022-12-18T04:37:50.796Z,97133
2022-12-18T04:38:50.838Z,97133
2022-12-18T04:39:50.844Z,97130
2022-12-18T04:40:50.859Z,97132
2022-12-18T04:41:50.882Z,97132
2022-12-18T04:42:50.824Z,97132
2022-12-18T04:43:50.861Z,97131
2022-12-18T04:44:50.855Z,97127
2022-12-18T04:45:50.873Z,97125
2022-12-18T04:48:50.843Z,97130
2022-12-18T04:49:50.895Z,97127
2022-12-18T04:50:50.847Z,97127
2022-12-18T04:51:50.917Z,97131
2022-12-18T04:54:50.937Z,97136
2022-12-18T04:55:50.868Z,97136
2022-12-18T04:56:50.916Z,97132
2022-12-18T04:57:50.877Z,97139
2022-12-18T04:59:50.957Z,97136
2022-12-18T05:00:50.856Z,97136
2022-12-18T05:01:53.923Z,97134
2022-12-18T05:02:51.073Z,97134
2022-12-18T05:03:50.949Z,97130
2022-12-18T05:04:50.932Z,97128
2022-12-18T05:05:50.876Z,97125
2022-12-18T05:06:50.944Z,97123
2022-12-18T05:07:50.923Z,97126
2022-12-18T05:08:50.918Z,97126
2022-12-18T05:09:50.948Z,97131
2022-12-18T05:10:50.879Z,97129
2022-12-18T05:12:50.877Z,97125
2022-12-18T05:13:50.909Z,97125
2022-12-18T05:14:50.978Z,97119
2022-12-18T05:15:51.084Z,97118
2022-12-18T05:16:50.923Z,97118
2022-12-18T05:17:50.955Z,97118
2022-12-18T05:18:50.939Z,97120
2022-12-18T05:19:50.970Z,97121
2022-12-18T05:20:50.942Z,97121
2022-12-18T05:21:50.901Z,97123
2022-12-18T05:22:50.974Z,97121
2022-12-18T05:23:50.902Z,97121
2022-12-18T05:24:50.955Z,97122
2022-12-18T05:25:50.935Z,97123
2022-12-18T05:27:50.991Z,97127
2022-12-18T05:28:50.943Z,97130
2022-12-18T05:29:50.963Z,97130
2022-12-18T05:30:50.987Z,97130
2022-12-18T05:31:50.968Z,97130
2022-12-18T05:34:50.934Z,97137
2022-12-18T05:36:50.952Z,97141
2022-12-18T05:37:50.986Z,97143
2022-12-18T05:38:54.104Z,97142
2022-12-18T05:39:50.939Z,97143
2022-12-18T05:40:51.030Z,97145
2022-12-18T05:41:50.992Z,97145
2022-12-18T05:42:50.995Z,97144
2022-12-18T05:43:51.013Z,97143
2022-12-18T05:44:50.984Z,97143
2022-12-18T05:45:51.009Z,97145
2022-12-18T05:46:51.031Z,97145
2022-12-18T05:47:51.032Z,97143
2022-12-18T05:48:51.004Z,97143
2022-12-18T05:49:50.983Z,97146
2022-12-18T05:50:51.046Z,97148
2022-12-18T05:51:50.975Z,97145
2022-12-18T05:52:51.016Z,97144
2022-12-18T05:53:51.021Z,97144
2022-12-18T05:54:51.021Z,97142
2022-12-18T05:55:51.021Z,97141
2022-12-18T05:56:51.031Z,97140
2022-12-18T05:58:51.031Z,97142
2022-12-18T05:59:51.029Z,97142
2022-12-18T06:00:51.077Z,97139
2022-12-18T06:01:51.154Z,97139
2022-12-18T06:02:51.205Z,97135
2022-12-18T06:03:51.078Z,97130
2022-12-18T06:04:51.040Z,97133
2022-12-18T06:05:51.089Z,97135
2022-12-18T06:06:51.027Z,97137
2022-12-18T06:07:51.106Z,97140
2022-12-18T06:08:51.057Z,97142
2022-12-18T06:09:51.041Z,97141
2022-12-18T06:10:51.091Z,97149
2022-12-18T06:11:51.015Z,97147
2022-12-18T06:12:51.012Z,97147
2022-12-18T06:13:56.158Z,97149
2022-12-18T06:14:51.071Z,97155
2022-12-18T06:15:54.433Z,97154
2022-12-18T06:16:51.068Z,97157
2022-12-18T06:17:51.033Z,97156
2022-12-18T06:18:51.063Z,97154
2022-12-18T06:19:51.038Z,97158
2022-12-18T06:20:51.065Z,97161
2022-12-18T06:21:51.022Z,97161
2022-12-18T06:22:51.110Z,97159
2022-12-18T06:23:51.084Z,97159
2022-12-18T06:24:51.138Z,97166
2022-12-18T06:25:51.118Z,97165
2022-12-18T06:26:51.097Z,97165
2022-12-18T06:27:51.057Z,97167
2022-12-18T06:28:51.092Z,97169
2022-12-18T06:29:51.105Z,97169
2022-12-18T06:30:51.129Z,97173
2022-12-18T06:31:51.259Z,97168
2022-12-18T06:32:56.373Z,97172
2022-12-18T06:33:51.098Z,97169
2022-12-18T06:34:51.071Z,97172
2022-12-18T06:35:51.108Z,97172
2022-12-18T06:36:51.066Z,97170
2022-12-18T06:37:51.147Z,97172
2022-12-18T06:38:51.120Z,97167
2022-12-18T06:39:51.134Z,97164
2022-12-18T06:40:51.120Z,97164
2022-12-18T06:41:51.081Z,97164
2022-12-18T06:42:51.154Z,97166
2022-12-18T06:43:52.244Z,97171
2022-12-18T06:44:51.101Z,97171
2022-12-18T06:45:51.170Z,97168
2022-12-18T06:46:51.107Z,97170
2022-12-18T06:47:51.137Z,97174
2022-12-18T06:48:51.147Z,97178
2022-12-18T06:49:51.137Z,97179
2022-12-18T06:50:51.142Z,97181
2022-12-18T06:51:51.110Z,97182
2022-12-18T06:52:54.635Z,97185
2022-12-18T06:53:51.162Z,97187
2022-12-18T06:54:51.131Z,97190
2022-12-18T06:55:51.150Z,97192
2022-12-18T06:57:51.127Z,97195
2022-12-18T06:58:51.164Z,97195
2022-12-18T06:59:51.136Z,97195
2022-12-18T07:00:51.273Z,97198
2022-12-18T07:01:51.327Z,97197
2022-12-18T07:02:51.416Z,97196
2022-12-18T07:03:51.212Z,97197
2022-12-18T07:04:51.194Z,97200
2022-12-18T07:05:51.193Z,97200
2022-12-18T07:07:51.185Z,97200
2022-12-18T07:08:51.232Z,97202
2022-12-18T07:10:55.903Z,97207
2022-12-18T07:11:51.212Z,97206
2022-12-18T07:12:51.195Z,97208
2022-12-18T07:13:51.205Z,97211
2022-12-18T07:14:51.209Z,97211
2022-12-18T07:15:51.263Z,97214
2022-12-18T07:16:51.310Z,97215
2022-12-18T07:17:51.172Z,97212
2022-12-18T07:18:51.240Z,97214
2022-12-18T07:19:51.180Z,97213
2022-12-18T07:20:51.213Z,97213
2022-12-18T07:21:51.223Z,97218
2022-12-18T07:22:56.143Z,97220
2022-12-18T07:23:51.275Z,97218
2022-12-18T07:24:51.224Z,97218
2022-12-18T07:25:51.235Z,97218
2022-12-18T07:26:51.255Z,97220
2022-12-18T07:27:51.209Z,97225
2022-12-18T07:28:51.243Z,97226
2022-12-18T07:29:54.867Z,97229
2022-12-18T07:30:51.224Z,97233
2022-12-18T07:31:51.342Z,97231
2022-12-18T07:32:51.212Z,97229
2022-12-18T07:33:51.261Z,97229
2022-12-18T07:34:51.247Z,97232
2022-12-18T07:35:51.217Z,97230
2022-12-18T07:36:51.289Z,97231
2022-12-18T07:37:51.254Z,97231
2022-12-18T07:38:51.276Z,97234
2022-12-18T07:39:51.310Z,97235
2022-12-18T07:40:51.283Z,97233
2022-12-18T07:41:51.291Z,97237
2022-12-18T07:42:51.236Z,97239
2022-12-18T07:43:51.249Z,97238
2022-12-18T07:44:51.315Z,97238
2022-12-18T07:46:51.337Z,97237
2022-12-18T07:47:51.252Z,97235
2022-12-18T07:48:51.299Z,97235
2022-12-18T07:50:51.300Z,97238
2022-12-18T07:51:51.311Z,97239
2022-12-18T07:52:51.303Z,97239
2022-12-18T07:53:52.277Z,97239
2022-12-18T07:54:51.290Z,97240
2022-12-18T07:56:18.354Z,97240
2022-12-18T07:57:54.145Z,97243
2022-12-18T07:58:51.317Z,97243
2022-12-18T07:59:51.309Z,97244
2022-12-18T08:00:51.300Z,97243
2022-12-18T08:01:51.422Z,97243
2022-12-18T08:02:51.411Z,97245
2022-12-18T08:03:52.108Z,97245
2022-12-18T08:05:51.341Z,97250
2022-12-18T08:06:55.166Z,97254
2022-12-18T08:07:51.342Z,97253
2022-12-18T08:08:51.331Z,97254
2022-12-18T08:09:51.423Z,97254
2022-12-18T08:10:51.298Z,97257
2022-12-18T08:11:51.348Z,97257
2022-12-18T08:12:51.404Z,97252
2022-12-18T08:13:51.348Z,97254
2022-12-18T08:14:51.348Z,97252
2022-12-18T08:15:51.356Z,97252
2022-12-18T08:16:51.377Z,97258
2022-12-18T08:17:51.355Z,97259
2022-12-18T08:18:51.311Z,97259
2022-12-18T08:19:51.380Z,97258
2022-12-18T08:20:51.382Z,97260
2022-12-18T08:21:51.373Z,97263
2022-12-18T08:22:51.383Z,97260
2022-12-18T08:23:51.801Z,97270
2022-12-18T08:24:51.410Z,97263
2022-12-18T08:25:51.369Z,97268
2022-12-18T08:28:51.349Z,97264
2022-12-18T08:29:51.438Z,97264
2022-12-18T08:31:51.428Z,97265
2022-12-18T08:32:51.429Z,97271
2022-12-18T08:33:51.419Z,97271
2022-12-18T08:34:51.399Z,97271
2022-12-18T08:36:51.372Z,97271
2022-12-18T08:37:51.397Z,97272
2022-12-18T08:38:51.423Z,97272
2022-12-18T08:39:51.393Z,97271
2022-12-18T08:40:51.378Z,97274
2022-12-18T08:41:51.386Z,97276
2022-12-18T08:42:51.409Z,97279
2022-12-18T08:43:55.386Z,97277
2022-12-18T08:44:51.374Z,97281
2022-12-18T08:45:51.457Z,97281
2022-12-18T08:46:51.422Z,97276
2022-12-18T08:47:51.468Z,97274
2022-12-18T08:48:51.454Z,97274
2022-12-18T08:49:51.439Z,97274
2022-12-18T08:50:51.418Z,97271
2022-12-18T08:51:51.387Z,97269
2022-12-18T08:52:51.464Z,97272
2022-12-18T08:53:51.435Z,97274
2022-12-18T08:54:51.442Z,97272
2022-12-18T08:55:51.493Z,97274
2022-12-18T08:56:51.435Z,97269
2022-12-18T08:57:51.432Z,97263
2022-12-18T08:58:51.449Z,97265
2022-12-18T08:59:51.408Z,97265
2022-12-18T09:00:51.681Z,97256
2022-12-18T09:01:51.531Z,97256
2022-12-18T09:02:51.739Z,97256
2022-12-18T09:03:51.497Z,97249
2022-12-18T09:04:57.122Z,97254
2022-12-18T09:05:51.482Z,97253
2022-12-18T09:07:51.468Z,97249
2022-12-18T09:08:51.510Z,97250
2022-12-18T09:09:51.459Z,97248
2022-12-18T09:10:51.503Z,97247
2022-12-18T09:11:51.525Z,97245
2022-12-18T09:12:51.481Z,97244
2022-12-18T09:13:51.457Z,97245
2022-12-18T09:14:51.474Z,97242
2022-12-18T09:15:51.480Z,97244
2022-12-18T09:16:51.509Z,97247
2022-12-18T09:17:51.517Z,97247
2022-12-18T09:18:51.526Z,97245
2022-12-18T09:19:51.475Z,97244
2022-12-18T09:21:51.521Z,97239
2022-12-18T09:22:51.489Z,97241
2022-12-18T09:23:51.503Z,97241
2022-12-18T09:24:51.533Z,97244
2022-12-18T09:25:51.577Z,97243
2022-12-18T09:26:56.138Z,97241
2022-12-18T09:27:51.497Z,97239
2022-12-18T09:28:51.552Z,97240
2022-12-18T09:29:51.536Z,97236
2022-12-18T09:30:51.613Z,97238
2022-12-18T09:31:51.499Z,97240
2022-12-18T09:32:51.493Z,97243
2022-12-18T09:33:51.549Z,97247
2022-12-18T09:34:51.509Z,97250
2022-12-18T09:35:51.538Z,97251
2022-12-18T09:36:51.557Z,97250
2022-12-18T09:37:51.555Z,97252
2022-12-18T09:38:51.552Z,97253
2022-12-18T09:39:51.578Z,97255
2022-12-18T09:40:51.544Z,97255
2022-12-18T09:41:52.185Z,97251
2022-12-18T09:42:51.551Z,97251
2022-12-18T09:43:51.611Z,97243
2022-12-18T09:44:51.631Z,97243
2022-12-18T09:45:51.575Z,97245
2022-12-18T09:46:51.625Z,97246
2022-12-18T09:47:51.575Z,97251
2022-12-18T09:48:51.601Z,97249
2022-12-18T09:49:51.589Z,97250
2022-12-18T09:50:51.573Z,97253
2022-12-18T09:51:51.622Z,97251
2022-12-18T09:52:51.574Z,97251
2022-12-18T09:53:51.636Z,97253
2022-12-18T09:55:51.625Z,97251
2022-12-18T09:56:51.633Z,97251
2022-12-18T09:57:55.878Z,97252
2022-12-18T09:59:51.597Z,97251
2022-12-18T10:01:51.864Z,97247
2022-12-18T10:02:51.779Z,97250
2022-12-18T10:03:51.574Z,97250
2022-12-18T10:04:51.633Z,97249
2022-12-18T10:05:51.602Z,97249
2022-12-18T10:07:51.622Z,97256
2022-12-18T10:09:51.660Z,97258
2022-12-18T10:10:51.629Z,97257
2022-12-18T10:12:51.618Z,97259
2022-12-18T10:13:51.614Z,97260
2022-12-18T10:14:51.671Z,97257
2022-12-18T10:15:51.740Z,97261
2022-12-18T10:16:51.675Z,97260
2022-12-18T10:17:51.673Z,97263
2022-12-18T10:18:51.685Z,97258
2022-12-18T10:19:51.663Z,97257
2022-12-18T10:20:51.665Z,97257
2022-12-18T10:21:51.642Z,97257
2022-12-18T10:23:51.665Z,97259
2022-12-18T10:24:51.717Z,97262
2022-12-18T10:25:51.692Z,97263
2022-12-18T10:27:51.636Z,97264
2022-12-18T10:28:51.667Z,97261
2022-12-18T10:29:51.699Z,97263
2022-12-18T10:30:51.710Z,97265
2022-12-18T10:33:51.700Z,97269
2022-12-18T10:35:00.425Z,97274
2022-12-18T10:35:51.693Z,97275
2022-12-18T10:37:51.713Z,97268
2022-12-18T10:38:51.642Z,97268
2022-12-18T10:39:51.740Z,97262
2022-12-18T10:41:51.668Z,97262
2022-12-18T10:42:51.687Z,97262
2022-12-18T10:43:51.699Z,97260
2022-12-18T10:44:51.725Z,97262
2022-12-18T10:45:51.679Z,97262
2022-12-18T10:46:51.816Z,97264
2022-12-18T10:47:51.745Z,97262
2022-12-18T10:48:51.692Z,97263
2022-12-18T10:49:51.715Z,97261
2022-12-18T10:51:10.347Z,97263
2022-12-18T10:51:51.672Z,97265
2022-12-18T10:52:51.711Z,97270
2022-12-18T10:54:51.723Z,97273
2022-12-18T10:55:51.693Z,97273
2022-12-18T10:56:51.696Z,97274
2022-12-18T10:57:51.767Z,97275
2022-12-18T10:58:51.735Z,97275
2022-12-18T10:59:51.726Z,97275
2022-12-18T11:00:51.736Z,97275
2022-12-18T11:01:51.874Z,97280
2022-12-18T11:02:52.059Z,97278
2022-12-18T11:03:51.846Z,97278
2022-12-18T11:04:51.774Z,97274
2022-12-18T11:05:51.742Z,97274
2022-12-18T11:06:51.757Z,97270
2022-12-18T11:07:51.785Z,97272
2022-12-18T11:08:52.038Z,97270
2022-12-18T11:09:51.803Z,97263
2022-12-18T11:10:51.765Z,97263
2022-12-18T11:11:51.780Z,97261
2022-12-18T11:12:51.755Z,97262
2022-12-18T11:13:51.725Z,97262
2022-12-18T11:15:51.848Z,97259
2022-12-18T11:17:24.179Z,97259
2022-12-18T11:17:51.768Z,97258
2022-12-18T11:18:51.794Z,97256
2022-12-18T11:19:51.814Z,97257
2022-12-18T11:20:56.908Z,97252
2022-12-18T11:21:51.748Z,97252
2022-12-18T11:22:51.822Z,97246
2022-12-18T11:23:51.802Z,97239
2022-12-18T11:25:14.954Z,97239
2022-12-18T11:26:57.798Z,97238
2022-12-18T11:27:51.807Z,97232
2022-12-18T11:28:51.792Z,97232
2022-12-18T11:29:52.021Z,97233
2022-12-18T11:30:51.867Z,97231
2022-12-18T11:31:51.770Z,97231
2022-12-18T11:32:51.770Z,97227
2022-12-18T11:34:19.662Z,97222
2022-12-18T11:34:57.358Z,97222
2022-12-18T11:35:51.871Z,97223
2022-12-18T11:36:51.830Z,97221
2022-12-18T11:37:51.839Z,97221
2022-12-18T11:38:51.863Z,97220
2022-12-18T11:39:51.832Z,97219
2022-12-18T11:40:51.861Z,97216
2022-12-18T11:41:51.856Z,97216
2022-12-18T11:42:51.840Z,97221
2022-12-18T11:43:51.872Z,97224
2022-12-18T11:44:51.849Z,97220
2022-12-18T11:45:52.345Z,97222
2022-12-18T11:46:51.957Z,97219
2022-12-18T11:47:51.853Z,97219
2022-12-18T11:48:51.908Z,97216
2022-12-18T11:49:51.866Z,97216
2022-12-18T11:50:51.851Z,97209
2022-12-18T11:51:51.853Z,97209
2022-12-18T11:52:57.309Z,97208
2022-12-18T11:53:51.861Z,97207
2022-12-18T11:54:51.897Z,97207
2022-12-18T11:55:51.816Z,97207
2022-12-18T11:56:51.842Z,97212
2022-12-18T11:57:51.831Z,97212
2022-12-18T11:58:51.924Z,97214
2022-12-18T11:59:51.878Z,97214
2022-12-18T12:00:51.880Z,97220
2022-12-18T12:02:51.977Z,97219
2022-12-18T12:03:52.007Z,97224
2022-12-18T12:04:51.906Z,97224
2022-12-18T12:06:51.902Z,97229
2022-12-18T12:07:51.873Z,97227
2022-12-18T12:08:51.900Z,97227
2022-12-18T12:09:51.862Z,97228
2022-12-18T12:10:51.898Z,97225
2022-12-18T12:11:51.959Z,97218
2022-12-18T12:12:51.878Z,97218
2022-12-18T12:13:51.904Z,97218
2022-12-18T12:14:51.879Z,97216
2022-12-18T12:15:51.940Z,97214
2022-12-18T12:16:51.923Z,97212
2022-12-18T12:17:51.890Z,97211
2022-12-18T12:18:51.927Z,97211
2022-12-18T12:19:51.924Z,97212
2022-12-18T12:21:51.943Z,97203
2022-12-18T12:22:52.533Z,97204
2022-12-18T12:24:51.936Z,97206
2022-12-18T12:25:51.936Z,97205
2022-12-18T12:26:51.943Z,97202
2022-12-18T12:27:51.966Z,97200
2022-12-18T12:28:51.969Z,97201
2022-12-18T12:30:51.918Z,97194
2022-12-18T12:31:52.036Z,97189
2022-12-18T12:32:51.943Z,97194
2022-12-18T12:34:57.667Z,97194
2022-12-18T12:35:51.935Z,97194
2022-12-18T12:36:52.032Z,97197
2022-12-18T12:37:51.962Z,97197
2022-12-18T12:39:52.007Z,97197
2022-12-18T12:40:57.083Z,97198
2022-12-18T12:41:51.978Z,97195
2022-12-18T12:42:52.025Z,97194
2022-12-18T12:43:52.189Z,97193
2022-12-18T12:44:56.424Z,97191
2022-12-18T12:45:52.063Z,97193
2022-12-18T12:46:51.993Z,97193
2022-12-18T12:47:52.049Z,97188
2022-12-18T12:48:51.956Z,97185
2022-12-18T12:49:52.036Z,97180
2022-12-18T12:50:51.945Z,97180
2022-12-18T12:51:52.012Z,97178
2022-12-18T12:52:52.008Z,97178
2022-12-18T12:53:51.977Z,97176
2022-12-18T12:54:52.013Z,97176
2022-12-18T12:55:52.010Z,97178
2022-12-18T12:56:51.991Z,97178
2022-12-18T12:57:52.006Z,97180
2022-12-18T12:58:52.023Z,97180
2022-12-18T13:00:52.159Z,97176
2022-12-18T13:01:52.132Z,97176
2022-12-18T13:02:52.059Z,97177
2022-12-18T13:03:52.026Z,97169
2022-12-18T13:04:52.029Z,97169
2022-12-18T13:05:52.032Z,97172
2022-12-18T13:06:52.042Z,97172
2022-12-18T13:07:52.074Z,97171
2022-12-18T13:08:52.048Z,97179
2022-12-18T13:09:52.047Z,97179
2022-12-18T13:10:52.079Z,97180
2022-12-18T13:11:57.811Z,97180
2022-12-18T13:12:52.063Z,97179
2022-12-18T13:13:52.062Z,97181
2022-12-18T13:14:52.081Z,97186
2022-12-18T13:15:52.098Z,97183
2022-12-18T13:16:52.020Z,97183
2022-12-18T13:17:52.107Z,97191
2022-12-18T13:18:52.027Z,97191
2022-12-18T13:19:52.034Z,97191
2022-12-18T13:20:54.399Z,97193
2022-12-18T13:21:52.091Z,97188
2022-12-18T13:22:52.076Z,97191
2022-12-18T13:23:52.074Z,97187
2022-12-18T13:24:52.061Z,97189
2022-12-18T13:25:52.118Z,97186
2022-12-18T13:26:52.044Z,97187
2022-12-18T13:27:52.131Z,97182
2022-12-18T13:28:52.055Z,97182
2022-12-18T13:29:52.056Z,97178
2022-12-18T13:30:55.626Z,97177
2022-12-18T13:31:52.096Z,97178
2022-12-18T13:32:52.147Z,97179
2022-12-18T13:34:52.060Z,97182
2022-12-18T13:35:52.163Z,97183
2022-12-18T13:36:53.142Z,97183
2022-12-18T13:37:52.110Z,97183
2022-12-18T13:38:52.139Z,97187
2022-12-18T13:39:52.085Z,97191
2022-12-18T13:41:52.122Z,97189
2022-12-18T13:42:52.091Z,97190
2022-12-18T13:43:52.151Z,97188
2022-12-18T13:44:52.130Z,97185
2022-12-18T13:45:52.155Z,97182
2022-12-18T13:46:52.111Z,97184
2022-12-18T13:47:52.105Z,97181
2022-12-18T13:48:52.185Z,97179
2022-12-18T13:50:52.146Z,97181
2022-12-18T13:51:52.139Z,97181
2022-12-18T13:52:52.133Z,97184
2022-12-18T13:53:52.175Z,97184
2022-12-18T13:54:52.159Z,97179
2022-12-18T13:55:52.151Z,97174
2022-12-18T13:56:52.144Z,97174
2022-12-18T13:57:52.149Z,97178
2022-12-18T13:58:52.201Z,97189
2022-12-18T13:59:52.159Z,97189
2022-12-18T14:00:52.322Z,97191
2022-12-18T14:01:52.367Z,97191
2022-12-18T14:02:52.302Z,97189
2022-12-18T14:04:52.176Z,97188
2022-12-18T14:05:52.203Z,97182
2022-12-18T14:07:52.142Z,97184
2022-12-18T14:08:52.202Z,97181
2022-12-18T14:09:55.485Z,97184
2022-12-18T14:10:52.253Z,97183
2022-12-18T14:11:52.200Z,97183
2022-12-18T14:12:52.204Z,97185
2022-12-18T14:14:54.934Z,97183
2022-12-18T14:15:52.232Z,97183
2022-12-18T14:16:52.265Z,97183
2022-12-18T14:17:52.187Z,97182
2022-12-18T14:18:52.241Z,97179
2022-12-18T14:19:52.191Z,97179
2022-12-18T14:20:52.840Z,97181
2022-12-18T14:21:52.213Z,97181
2022-12-18T14:22:52.174Z,97185
2022-12-18T14:23:52.202Z,97186
2022-12-18T14:24:52.199Z,97188
2022-12-18T14:25:52.217Z,97188
2022-12-18T14:26:52.202Z,97186
2022-12-18T14:27:52.218Z,97186
2022-12-18T14:28:52.264Z,97189
2022-12-18T14:29:52.235Z,97189
2022-12-18T14:30:52.295Z,97188
2022-12-18T14:31:52.275Z,97183
2022-12-18T14:32:52.230Z,97183
2022-12-18T14:33:52.284Z,97180
2022-12-18T14:34:52.193Z,97180
2022-12-18T14:35:52.242Z,97183
2022-12-18T14:36:52.290Z,97183
2022-12-18T14:37:52.242Z,97183
2022-12-18T14:38:52.294Z,97189
2022-12-18T14:39:52.261Z,97186
2022-12-18T14:40:52.320Z,97187
2022-12-18T14:41:52.247Z,97187
2022-12-18T14:42:52.277Z,97184
2022-12-18T14:43:52.295Z,97187
2022-12-18T14:45:13.358Z,97187
2022-12-18T14:45:52.246Z,97184
2022-12-18T14:46:52.305Z,97183
2022-12-18T14:47:52.265Z,97183
2022-12-18T14:48:52.300Z,97184
2022-12-18T14:49:52.280Z,97184
2022-12-18T14:50:53.615Z,97186
2022-12-18T14:52:52.276Z,97182
2022-12-18T14:53:54.499Z,97183
2022-12-18T14:54:52.294Z,97182
2022-12-18T14:55:52.302Z,97180
2022-12-18T14:56:52.332Z,97180